Pronóstico
Mapa Interactivo
Aviación
Climatología
Hidrometeorología
Agrometeorología
Estaciones Automáticas
Transparencia
OMM WMO
Portada
Institución
Noticias
Imágenes
Tsunami
Historial
Boletines y Alertas
Contactos
Buscar Contenidos
Informe del Tiempo

                                                                                                                      

                                                                                                SANTO DOMINGO 19 DE ABRIL DE 2018

                                                                                                     AEROP. INT. LAS AMERICAS JFPG-

 

FTDR31 MDSD 191600Z
TAF 

TAF MDPP 191600Z 1918/2018 08012KT 9999 STC020 SCT070 PROB40 1922/2004 7000 -TSRA FEW014CB SCT016 BKN070 BECMG 1923/2001 00000KT=

TAF MDST 191600Z 1918/2018 12012KT 9999 SCT022 PROB30 1918/2000 6000 -TSRA FEW016CB BKN018= 

TAF MDPC 191600Z 1918/2018 13015KT 9999 SCT022 BECMG 1923/2001 08010KT PROB30 2000/2004 5000 TSRA FEW016CB SCT018 BKN070=

TAF MDBH 191600Z 1918/2018 13010KT 9999 FEW018CB SCT100 PROB30 1921/2003 7000 -TSRA FEW014CB BKN014 OVC070=

TAF MDJB 191600Z 1918/2018 00000KT 9999 SCT018 BECMG 1914/1916 09008KT BECMG 1918/1920 18010KT TEMPO 1918/2000 6000 -TSRA FEW014CB BKN016 BKN070 = 

TAF MDSD 191600Z 1918/2018 16010KT 9999 FEW018CB SCT020 PROB40 1918/2000 6000 -TSRA FEW016CB BKN016 SCT070 BECMG 1920/1922 07008KT=

TAF MDLR 191600Z 1918/2018 16012KT 9999 FEW016CB SCT018 TEMPO 1918/2000 6000 -TSRA FEW014CB BKN016 BKN070 BECMG 2000/2002 00000KT= 

TAF MDCY 191600Z 1918/2018 07010KT 9999 FEW018CB SCT020 PROB30 1919/1923 7000 -TSSH FEW014CB BKN014=

 

MDPP AEROPUERTO INTERNACIONAL LA UNION PUERTO PLATA

MDST AEROPUERTO INTERNACIONAL DE SANTIAGO

MDPC AEROPUERTO INTERNACIONAL PUNTA CANA

MDBH AEROPUERTO INTERNACIONAL DE BARAHONA

MDJB AEROPUERTO INTERNACIONAL JOAQUIN BALAGUER

MDSD AEROPUERTO INTERNACIONAL LAS AMERICAS

MDLR AEROPUERTO INTERNACIONAL LA ROMANA

MDCY AEROPUERTO INTERNACIONAL DE CATEY

 

ANGEL MARTINEZ

MDPP // J.ACOSTA

MDST // INUÑEZ

MDPC // C.FLORIAN

MDLR//BENITO

MDBH//FELIPE

MDPC// C. FLORIAN.

MDCY// EIMER